sensor_id;sensor_type;location;lat;lon;timestamp;pressure;altitude;pressure_sealevel;temperature;humidity
69982;BME280;57319;56.274;43.980;2023-06-10T00:01:13;99831.38;;;11.26;64.61
69982;BME280;57319;56.274;43.980;2023-06-10T00:03:38;99833.22;;;11.21;65.09
69982;BME280;57319;56.274;43.980;2023-06-10T00:06:06;99836.72;;;11.14;65.05
69982;BME280;57319;56.274;43.980;2023-06-10T00:08:32;99831.63;;;11.09;65.38
69982;BME280;57319;56.274;43.980;2023-06-10T00:10:58;99837.72;;;11.03;65.90
69982;BME280;57319;56.274;43.980;2023-06-10T00:13:24;99842.09;;;10.97;65.00
69982;BME280;57319;56.274;43.980;2023-06-10T00:15:50;99842.94;;;10.97;66.01
69982;BME280;57319;56.274;43.980;2023-06-10T00:18:16;99841.28;;;10.93;65.16
69982;BME280;57319;56.274;43.980;2023-06-10T00:20:43;99842.22;;;10.88;64.61
69982;BME280;57319;56.274;43.980;2023-06-10T00:23:08;99837.94;;;10.85;65.58
69982;BME280;57319;56.274;43.980;2023-06-10T00:25:35;99841.47;;;10.78;65.18
69982;BME280;57319;56.274;43.980;2023-06-10T00:28:00;99850.94;;;10.77;65.02
69982;BME280;57319;56.274;43.980;2023-06-10T00:30:26;99842.38;;;10.75;64.71
69982;BME280;57319;56.274;43.980;2023-06-10T00:32:52;99850.09;;;10.75;65.41
69982;BME280;57319;56.274;43.980;2023-06-10T00:35:17;99857.00;;;10.72;65.55
69982;BME280;57319;56.274;43.980;2023-06-10T00:37:43;99862.13;;;10.75;64.89
69982;BME280;57319;56.274;43.980;2023-06-10T00:40:09;99861.34;;;10.66;64.21
69982;BME280;57319;56.274;43.980;2023-06-10T00:42:35;99858.81;;;10.65;64.34
69982;BME280;57319;56.274;43.980;2023-06-10T00:45:01;99862.19;;;10.67;64.85
69982;BME280;57319;56.274;43.980;2023-06-10T00:47:27;99870.78;;;10.67;65.61
69982;BME280;57319;56.274;43.980;2023-06-10T00:49:54;99871.72;;;10.59;65.11
69982;BME280;57319;56.274;43.980;2023-06-10T00:52:22;99879.47;;;10.57;65.15
69982;BME280;57319;56.274;43.980;2023-06-10T00:54:49;99883.78;;;10.57;65.25
69982;BME280;57319;56.274;43.980;2023-06-10T00:57:15;99882.16;;;10.46;65.27
69982;BME280;57319;56.274;43.980;2023-06-10T00:59:46;99881.41;;;10.35;65.15
69982;BME280;57319;56.274;43.980;2023-06-10T01:02:13;99888.25;;;10.31;64.95
69982;BME280;57319;56.274;43.980;2023-06-10T01:04:38;99899.44;;;10.29;64.88
69982;BME280;57319;56.274;43.980;2023-06-10T01:07:21;99906.25;;;10.38;65.79
69982;BME280;57319;56.274;43.980;2023-06-10T01:12:34;99914.06;;;10.24;65.43
69982;BME280;57319;56.274;43.980;2023-06-10T01:15:04;99909.78;;;10.23;66.18
69982;BME280;57319;56.274;43.980;2023-06-10T01:17:30;99916.63;;;10.25;66.58
69982;BME280;57319;56.274;43.980;2023-06-10T01:19:57;99914.09;;;10.19;66.18
69982;BME280;57319;56.274;43.980;2023-06-10T01:22:24;99922.66;;;10.21;66.74
69982;BME280;57319;56.274;43.980;2023-06-10T01:24:52;99917.59;;;10.12;65.68
69982;BME280;57319;56.274;43.980;2023-06-10T01:27:19;99930.53;;;9.99;66.00
69982;BME280;57319;56.274;43.980;2023-06-10T01:29:50;99931.41;;;10.01;65.93
69982;BME280;57319;56.274;43.980;2023-06-10T01:32:29;99927.09;;;10.02;66.63
69982;BME280;57319;56.274;43.980;2023-06-10T01:34:59;99939.13;;;9.98;66.32
69982;BME280;57319;56.274;43.980;2023-06-10T01:37:26;99946.88;;;9.92;66.22
69982;BME280;57319;56.274;43.980;2023-06-10T01:39:52;99950.34;;;9.90;66.32
69982;BME280;57319;56.274;43.980;2023-06-10T01:42:20;99945.22;;;9.83;66.64
69982;BME280;57319;56.274;43.980;2023-06-10T01:44:46;99950.41;;;9.77;66.93
69982;BME280;57319;56.274;43.980;2023-06-10T01:47:12;99944.47;;;9.67;66.88
69982;BME280;57319;56.274;43.980;2023-06-10T01:49:38;99947.97;;;9.60;66.96
69982;BME280;57319;56.274;43.980;2023-06-10T01:52:04;99945.38;;;9.62;67.34
69982;BME280;57319;56.274;43.980;2023-06-10T01:54:29;99949.63;;;9.61;67.85
69982;BME280;57319;56.274;43.980;2023-06-10T01:56:55;99956.50;;;9.62;67.66
69982;BME280;57319;56.274;43.980;2023-06-10T01:59:21;99953.91;;;9.65;67.99
69982;BME280;57319;56.274;43.980;2023-06-10T02:01:46;99955.63;;;9.66;67.54
69982;BME280;57319;56.274;43.980;2023-06-10T02:04:12;99955.63;;;9.66;67.31
69982;BME280;57319;56.274;43.980;2023-06-10T02:06:38;99959.88;;;9.69;67.70
69982;BME280;57319;56.274;43.980;2023-06-10T02:09:03;99970.16;;;9.71;67.63
69982;BME280;57319;56.274;43.980;2023-06-10T02:11:29;99965.88;;;9.70;67.65
69982;BME280;57319;56.274;43.980;2023-06-10T02:13:55;99971.00;;;9.70;67.74
69982;BME280;57319;56.274;43.980;2023-06-10T02:16:20;99977.84;;;9.78;68.01
69982;BME280;57319;56.274;43.980;2023-06-10T02:18:47;99985.53;;;9.80;67.84
69982;BME280;57319;56.274;43.980;2023-06-10T02:21:14;99989.88;;;9.72;67.27
69982;BME280;57319;56.274;43.980;2023-06-10T02:23:40;99983.00;;;9.77;67.70
69982;BME280;57319;56.274;43.980;2023-06-10T02:26:05;99982.09;;;9.81;67.72
69982;BME280;57319;56.274;43.980;2023-06-10T02:28:31;99988.94;;;9.85;67.91
69982;BME280;57319;56.274;43.980;2023-06-10T02:30:57;99993.19;;;9.89;67.28
69982;BME280;57319;56.274;43.980;2023-06-10T02:33:24;100000.03;;;9.89;67.41
69982;BME280;57319;56.274;43.980;2023-06-10T02:35:49;99997.47;;;9.89;67.36
69982;BME280;57319;56.274;43.980;2023-06-10T02:38:15;99998.28;;;9.95;67.91
69982;BME280;57319;56.274;43.980;2023-06-10T02:40:42;99999.13;;;10.00;67.33
69982;BME280;57319;56.274;43.980;2023-06-10T02:43:08;100003.41;;;9.98;67.95
69982;BME280;57319;56.274;43.980;2023-06-10T02:45:34;99996.63;;;9.90;67.51
69982;BME280;57319;56.274;43.980;2023-06-10T02:48:00;100001.75;;;9.90;68.36
69982;BME280;57319;56.274;43.980;2023-06-10T02:50:25;100004.28;;;9.94;68.07
69982;BME280;57319;56.274;43.980;2023-06-10T02:52:51;100000.88;;;9.92;68.05
69982;BME280;57319;56.274;43.980;2023-06-10T02:55:17;100003.47;;;9.89;67.96
69982;BME280;57319;56.274;43.980;2023-06-10T02:57:42;100015.44;;;9.96;68.29
69982;BME280;57319;56.274;43.980;2023-06-10T03:00:08;100015.41;;;9.99;68.50
69982;BME280;57319;56.274;43.980;2023-06-10T03:02:39;100011.94;;;10.04;68.47
69982;BME280;57319;56.274;43.980;2023-06-10T03:05:06;100012.75;;;10.10;67.92
69982;BME280;57319;56.274;43.980;2023-06-10T03:07:36;100015.34;;;10.09;67.71
69982;BME280;57319;56.274;43.980;2023-06-10T03:10:02;100021.44;;;9.94;66.55
69982;BME280;57319;56.274;43.980;2023-06-10T03:12:29;100017.16;;;9.91;66.47
69982;BME280;57319;56.274;43.980;2023-06-10T03:14:55;100019.66;;;10.04;67.21
69982;BME280;57319;56.274;43.980;2023-06-10T03:17:20;100019.66;;;10.05;67.05
69982;BME280;57319;56.274;43.980;2023-06-10T03:19:46;100023.88;;;10.15;67.22
69982;BME280;57319;56.274;43.980;2023-06-10T03:22:14;100025.53;;;10.24;67.02
69982;BME280;57319;56.274;43.980;2023-06-10T03:24:40;100034.09;;;10.23;66.67
69982;BME280;57319;56.274;43.980;2023-06-10T03:27:10;100031.53;;;10.23;66.52
69982;BME280;57319;56.274;43.980;2023-06-10T03:29:37;100027.19;;;10.30;67.01
69982;BME280;57319;56.274;43.980;2023-06-10T03:32:03;100030.63;;;10.35;66.67
69982;BME280;57319;56.274;43.980;2023-06-10T03:34:29;100027.16;;;10.41;66.21
69982;BME280;57319;56.274;43.980;2023-06-10T03:36:56;100037.44;;;10.42;65.42
69982;BME280;57319;56.274;43.980;2023-06-10T03:39:22;100028.03;;;10.38;65.47
69982;BME280;57319;56.274;43.980;2023-06-10T03:41:52;100040.00;;;10.44;65.43
69982;BME280;57319;56.274;43.980;2023-06-10T03:44:18;100030.56;;;10.41;65.49
69982;BME280;57319;56.274;43.980;2023-06-10T03:46:43;100038.28;;;10.44;65.49
69982;BME280;57319;56.274;43.980;2023-06-10T03:49:09;100039.16;;;10.42;66.10
69982;BME280;57319;56.274;43.980;2023-06-10T03:51:35;100038.19;;;10.53;65.64
69982;BME280;57319;56.274;43.980;2023-06-10T03:54:02;100045.03;;;10.61;65.02
69982;BME280;57319;56.274;43.980;2023-06-10T03:56:28;100056.06;;;10.74;64.51
69982;BME280;57319;56.274;43.980;2023-06-10T03:58:54;100053.53;;;10.69;63.44
69982;BME280;57319;56.274;43.980;2023-06-10T04:01:20;100060.31;;;10.78;63.23
69982;BME280;57319;56.274;43.980;2023-06-10T04:03:47;100055.13;;;10.81;63.68
69982;BME280;57319;56.274;43.980;2023-06-10T04:06:14;100052.56;;;10.84;63.30
69982;BME280;57319;56.274;43.980;2023-06-10T04:08:41;100058.41;;;10.98;64.20
69982;BME280;57319;56.274;43.980;2023-06-10T04:11:08;100056.63;;;11.07;63.35
69982;BME280;57319;56.274;43.980;2023-06-10T04:13:34;100051.38;;;11.16;62.94
69982;BME280;57319;56.274;43.980;2023-06-10T04:16:00;100057.34;;;11.21;63.00
69982;BME280;57319;56.274;43.980;2023-06-10T04:18:25;100060.75;;;11.23;61.87
69982;BME280;57319;56.274;43.980;2023-06-10T04:20:51;100063.41;;;11.15;61.72
69982;BME280;57319;56.274;43.980;2023-06-10T04:23:17;100069.38;;;11.19;61.67
69982;BME280;57319;56.274;43.980;2023-06-10T04:25:43;100073.59;;;11.26;61.90
69982;BME280;57319;56.274;43.980;2023-06-10T04:28:09;100064.09;;;11.31;61.64
69982;BME280;57319;56.274;43.980;2023-06-10T04:30:35;100067.44;;;11.40;61.32
69982;BME280;57319;56.274;43.980;2023-06-10T04:33:01;100065.69;;;11.45;62.18
69982;BME280;57319;56.274;43.980;2023-06-10T04:35:26;100074.28;;;11.44;61.93
69982;BME280;57319;56.274;43.980;2023-06-10T04:37:53;100080.25;;;11.47;62.04
69982;BME280;57319;56.274;43.980;2023-06-10T04:40:19;100075.06;;;11.50;62.09
69982;BME280;57319;56.274;43.980;2023-06-10T04:42:46;100075.06;;;11.50;61.50
69982;BME280;57319;56.274;43.980;2023-06-10T04:47:42;100082.78;;;11.52;61.27
69982;BME280;57319;56.274;43.980;2023-06-10T04:50:09;100077.63;;;11.52;61.38
69982;BME280;57319;56.274;43.980;2023-06-10T04:52:34;100085.31;;;11.58;61.71
69982;BME280;57319;56.274;43.980;2023-06-10T04:55:00;100081.84;;;11.58;60.39
69982;BME280;57319;56.274;43.980;2023-06-10T04:57:26;100083.44;;;11.69;60.62
69982;BME280;57319;56.274;43.980;2023-06-10T04:59:52;100080.72;;;11.80;60.60
69982;BME280;57319;56.274;43.980;2023-06-10T05:02:18;100078.91;;;11.88;60.97
69982;BME280;57319;56.274;43.980;2023-06-10T05:04:44;100085.72;;;11.96;59.92
69982;BME280;57319;56.274;43.980;2023-06-10T05:07:10;100081.38;;;11.99;60.47
69982;BME280;57319;56.274;43.980;2023-06-10T05:09:35;100095.97;;;12.00;59.57
69982;BME280;57319;56.274;43.980;2023-06-10T05:12:03;100101.09;;;12.03;58.76
69982;BME280;57319;56.274;43.980;2023-06-10T05:14:29;100104.44;;;12.10;58.24
69982;BME280;57319;56.274;43.980;2023-06-10T05:16:54;100102.59;;;12.21;58.57
69982;BME280;57319;56.274;43.980;2023-06-10T05:19:20;100114.44;;;12.33;58.00
69982;BME280;57319;56.274;43.980;2023-06-10T05:21:46;100102.34;;;12.37;58.09
69982;BME280;57319;56.274;43.980;2023-06-10T05:24:12;100109.44;;;12.24;59.45
69982;BME280;57319;56.274;43.980;2023-06-10T05:26:37;100108.03;;;12.00;59.93
69982;BME280;57319;56.274;43.980;2023-06-10T05:29:04;100116.69;;;11.94;61.07
69982;BME280;57319;56.274;43.980;2023-06-10T05:31:30;100120.25;;;11.82;60.66
69982;BME280;57319;56.274;43.980;2023-06-10T05:33:57;100115.16;;;11.78;60.75
69982;BME280;57319;56.274;43.980;2023-06-10T05:36:23;100119.25;;;11.93;60.67
69982;BME280;57319;56.274;43.980;2023-06-10T05:38:50;100119.88;;;12.15;58.28
69982;BME280;57319;56.274;43.980;2023-06-10T05:41:16;100124.53;;;12.52;58.33
69982;BME280;57319;56.274;43.980;2023-06-10T05:43:42;100117.53;;;12.59;56.78
69982;BME280;57319;56.274;43.980;2023-06-10T05:46:08;100121.78;;;12.63;57.25
69982;BME280;57319;56.274;43.980;2023-06-10T05:48:33;100138.28;;;12.51;57.55
69982;BME280;57319;56.274;43.980;2023-06-10T05:50:59;100141.16;;;12.32;57.37
69982;BME280;57319;56.274;43.980;2023-06-10T05:53:25;100137.06;;;12.14;57.72
69982;BME280;57319;56.274;43.980;2023-06-10T05:55:50;100144.00;;;12.11;59.16
69982;BME280;57319;56.274;43.980;2023-06-10T05:58:17;100148.28;;;12.13;59.12
69982;BME280;57319;56.274;43.980;2023-06-10T06:00:43;100148.91;;;12.32;58.25
69982;BME280;57319;56.274;43.980;2023-06-10T06:03:09;100151.38;;;12.38;57.97
69982;BME280;57319;56.274;43.980;2023-06-10T06:05:36;100149.63;;;12.39;58.14
69982;BME280;57319;56.274;43.980;2023-06-10T06:08:06;100149.53;;;12.47;57.97
69982;BME280;57319;56.274;43.980;2023-06-10T06:10:32;100145.69;;;12.74;57.89
69982;BME280;57319;56.274;43.980;2023-06-10T06:12:58;100153.16;;;12.94;56.31
69982;BME280;57319;56.274;43.980;2023-06-10T06:15:24;100147.81;;;13.03;55.76
69982;BME280;57319;56.274;43.980;2023-06-10T06:17:50;100148.59;;;13.09;54.47
69982;BME280;57319;56.274;43.980;2023-06-10T06:20:21;100149.53;;;13.04;53.90
69982;BME280;57319;56.274;43.980;2023-06-10T06:22:47;100157.25;;;13.06;54.08
69982;BME280;57319;56.274;43.980;2023-06-10T06:25:13;100151.28;;;13.02;54.09
69982;BME280;57319;56.274;43.980;2023-06-10T06:27:38;100160.50;;;13.17;53.59
69982;BME280;57319;56.274;43.980;2023-06-10T06:30:05;100152.44;;;13.37;53.03
69982;BME280;57319;56.274;43.980;2023-06-10T06:32:31;100159.06;;;13.52;52.67
69982;BME280;57319;56.274;43.980;2023-06-10T06:34:56;100159.81;;;13.59;52.17
69982;BME280;57319;56.274;43.980;2023-06-10T06:37:23;100153.28;;;13.39;52.71
69982;BME280;57319;56.274;43.980;2023-06-10T06:39:52;100162.56;;;13.50;52.57
69982;BME280;57319;56.274;43.980;2023-06-10T06:42:19;100158.31;;;13.46;53.41
69982;BME280;57319;56.274;43.980;2023-06-10T06:44:46;100158.50;;;13.33;53.03
69982;BME280;57319;56.274;43.980;2023-06-10T06:47:12;100165.53;;;13.25;53.59
69982;BME280;57319;56.274;43.980;2023-06-10T06:49:38;100166.03;;;12.96;53.45
69982;BME280;57319;56.274;43.980;2023-06-10T06:52:04;100165.38;;;12.81;54.06
69982;BME280;57319;56.274;43.980;2023-06-10T06:54:30;100169.78;;;12.78;55.04
69982;BME280;57319;56.274;43.980;2023-06-10T06:56:56;100175.69;;;12.83;55.94
69982;BME280;57319;56.274;43.980;2023-06-10T06:59:21;100175.72;;;12.81;55.88
69982;BME280;57319;56.274;43.980;2023-06-10T07:01:47;100181.16;;;12.63;55.41
69982;BME280;57319;56.274;43.980;2023-06-10T07:04:14;100179.66;;;12.48;57.00
69982;BME280;57319;56.274;43.980;2023-06-10T07:06:40;100177.94;;;12.47;56.04
69982;BME280;57319;56.274;43.980;2023-06-10T07:09:09;100181.09;;;12.67;55.83
69982;BME280;57319;56.274;43.980;2023-06-10T07:11:35;100173.84;;;12.91;54.86
69982;BME280;57319;56.274;43.980;2023-06-10T07:14:01;100183.16;;;13.03;54.84
69982;BME280;57319;56.274;43.980;2023-06-10T07:16:26;100189.25;;;12.97;55.51
69982;BME280;57319;56.274;43.980;2023-06-10T07:18:53;100187.75;;;12.82;54.86
69982;BME280;57319;56.274;43.980;2023-06-10T07:21:19;100186.34;;;12.63;54.34
69982;BME280;57319;56.274;43.980;2023-06-10T07:23:45;100191.44;;;12.67;54.16
69982;BME280;57319;56.274;43.980;2023-06-10T07:26:12;100193.66;;;12.92;52.13
69982;BME280;57319;56.274;43.980;2023-06-10T07:28:42;100182.75;;;13.28;49.99
69982;BME280;57319;56.274;43.980;2023-06-10T07:31:08;100178.69;;;13.64;49.34
69982;BME280;57319;56.274;43.980;2023-06-10T07:33:34;100179.44;;;13.69;49.63
69982;BME280;57319;56.274;43.980;2023-06-10T07:36:00;100186.19;;;13.78;49.92
69982;BME280;57319;56.274;43.980;2023-06-10T07:38:26;100190.81;;;13.61;50.92
69982;BME280;57319;56.274;43.980;2023-06-10T07:40:52;100198.00;;;13.43;51.71
69982;BME280;57319;56.274;43.980;2023-06-10T07:43:18;100209.75;;;13.10;52.84
69982;BME280;57319;56.274;43.980;2023-06-10T07:45:44;100205.34;;;13.13;52.24
69982;BME280;57319;56.274;43.980;2023-06-10T07:48:10;100196.56;;;13.25;51.48
69982;BME280;57319;56.274;43.980;2023-06-10T07:50:36;100191.13;;;13.44;50.32
69982;BME280;57319;56.274;43.980;2023-06-10T07:53:02;100188.84;;;13.73;47.96
69982;BME280;57319;56.274;43.980;2023-06-10T07:55:27;100187.00;;;13.80;45.86
69982;BME280;57319;56.274;43.980;2023-06-10T07:57:54;100200.69;;;13.87;47.07
69982;BME280;57319;56.274;43.980;2023-06-10T08:00:20;100191.91;;;13.94;47.55
69982;BME280;57319;56.274;43.980;2023-06-10T08:02:46;100206.44;;;14.00;49.17
69982;BME280;57319;56.274;43.980;2023-06-10T08:05:12;100212.09;;;13.75;48.52
69982;BME280;57319;56.274;43.980;2023-06-10T08:07:39;100224.31;;;13.68;47.55
69982;BME280;57319;56.274;43.980;2023-06-10T08:10:06;100212.41;;;13.58;46.96
69982;BME280;57319;56.274;43.980;2023-06-10T08:12:35;100197.84;;;13.52;45.96
69982;BME280;57319;56.274;43.980;2023-06-10T08:15:02;100214.19;;;13.56;45.46
69982;BME280;57319;56.274;43.980;2023-06-10T08:17:32;100208.47;;;13.85;45.92
69982;BME280;57319;56.274;43.980;2023-06-10T08:19:58;100206.03;;;14.21;44.92
69982;BME280;57319;56.274;43.980;2023-06-10T08:22:24;100219.25;;;14.50;45.25
69982;BME280;57319;56.274;43.980;2023-06-10T08:24:49;100218.03;;;14.68;45.25
69982;BME280;57319;56.274;43.980;2023-06-10T08:27:15;100224.25;;;14.59;44.91
69982;BME280;57319;56.274;43.980;2023-06-10T08:29:41;100227.38;;;14.33;45.62
69982;BME280;57319;56.274;43.980;2023-06-10T08:32:07;100223.53;;;14.10;45.54
69982;BME280;57319;56.274;43.980;2023-06-10T08:34:35;100223.38;;;14.16;45.16
69982;BME280;57319;56.274;43.980;2023-06-10T08:37:02;100229.88;;;14.37;44.68
69982;BME280;57319;56.274;43.980;2023-06-10T08:39:28;100229.50;;;14.54;42.62
69982;BME280;57319;56.274;43.980;2023-06-10T08:44:35;100233.97;;;14.04;44.54
69982;BME280;57319;56.274;43.980;2023-06-10T08:47:06;100235.94;;;13.93;44.63
69982;BME280;57319;56.274;43.980;2023-06-10T08:49:38;100239.25;;;13.99;44.91
69982;BME280;57319;56.274;43.980;2023-06-10T08:52:06;100227.97;;;14.03;43.84
69982;BME280;57319;56.274;43.980;2023-06-10T08:54:33;100229.47;;;14.15;42.79
69982;BME280;57319;56.274;43.980;2023-06-10T08:57:06;100234.41;;;14.28;42.19
69982;BME280;57319;56.274;43.980;2023-06-10T08:59:32;100228.94;;;14.41;41.46
69982;BME280;57319;56.274;43.980;2023-06-10T09:01:58;100237.97;;;14.64;41.89
69982;BME280;57319;56.274;43.980;2023-06-10T09:04:24;100233.38;;;14.35;41.59
69982;BME280;57319;56.274;43.980;2023-06-10T09:06:51;100236.28;;;14.19;43.87
69982;BME280;57319;56.274;43.980;2023-06-10T09:09:18;100237.19;;;14.17;43.27
69982;BME280;57319;56.274;43.980;2023-06-10T09:11:45;100249.19;;;14.21;42.92
69982;BME280;57319;56.274;43.980;2023-06-10T09:14:11;100236.13;;;14.27;41.80
69982;BME280;57319;56.274;43.980;2023-06-10T09:16:42;100239.59;;;14.68;41.41
69982;BME280;57319;56.274;43.980;2023-06-10T09:21:35;100245.44;;;14.80;41.71
69982;BME280;57319;56.274;43.980;2023-06-10T09:24:05;100248.06;;;14.76;41.37
69982;BME280;57319;56.274;43.980;2023-06-10T09:26:30;100246.94;;;14.88;41.32
69982;BME280;57319;56.274;43.980;2023-06-10T09:29:04;100250.09;;;15.01;40.94
69982;BME280;57319;56.274;43.980;2023-06-10T09:31:31;100242.88;;;15.16;40.49
69982;BME280;57319;56.274;43.980;2023-06-10T09:36:36;100255.72;;;14.83;40.83
69982;BME280;57319;56.274;43.980;2023-06-10T09:39:03;100256.41;;;14.91;41.60
69982;BME280;57319;56.274;43.980;2023-06-10T09:41:35;100243.81;;;15.12;41.76
69982;BME280;57319;56.274;43.980;2023-06-10T09:44:15;100244.31;;;15.26;39.96
69982;BME280;57319;56.274;43.980;2023-06-10T09:46:41;100242.78;;;15.19;41.11
69982;BME280;57319;56.274;43.980;2023-06-10T09:49:07;100248.66;;;14.89;40.21
69982;BME280;57319;56.274;43.980;2023-06-10T09:51:33;100249.41;;;14.93;40.41
69982;BME280;57319;56.274;43.980;2023-06-10T09:54:02;100246.50;;;15.07;40.01
69982;BME280;57319;56.274;43.980;2023-06-10T09:56:37;100250.19;;;15.34;39.63
69982;BME280;57319;56.274;43.980;2023-06-10T09:59:08;100241.38;;;15.40;39.36
69982;BME280;57319;56.274;43.980;2023-06-10T10:01:34;100258.56;;;15.46;39.78
69982;BME280;57319;56.274;43.980;2023-06-10T10:04:00;100246.84;;;15.65;39.15
69982;BME280;57319;56.274;43.980;2023-06-10T10:06:27;100255.63;;;15.59;38.12
69982;BME280;57319;56.274;43.980;2023-06-10T10:08:54;100252.72;;;15.36;37.68
69982;BME280;57319;56.274;43.980;2023-06-10T10:11:21;100255.94;;;15.09;38.94
69982;BME280;57319;56.274;43.980;2023-06-10T10:13:49;100255.06;;;15.10;40.03
69982;BME280;57319;56.274;43.980;2023-06-10T10:16:17;100255.00;;;15.14;37.62
69982;BME280;57319;56.274;43.980;2023-06-10T10:18:55;100261.69;;;15.24;37.65
69982;BME280;57319;56.274;43.980;2023-06-10T10:21:24;100257.97;;;15.34;36.60
69982;BME280;57319;56.274;43.980;2023-06-10T10:24:15;100254.28;;;15.44;36.15
69982;BME280;57319;56.274;43.980;2023-06-10T10:26:41;100256.50;;;15.58;37.64
69982;BME280;57319;56.274;43.980;2023-06-10T10:29:11;100263.00;;;15.40;37.04
69982;BME280;57319;56.274;43.980;2023-06-10T10:31:42;100248.13;;;15.49;37.73
69982;BME280;57319;56.274;43.980;2023-06-10T10:34:15;100260.28;;;15.45;39.38
69982;BME280;57319;56.274;43.980;2023-06-10T10:36:42;100263.09;;;15.37;36.95
69982;BME280;57319;56.274;43.980;2023-06-10T10:39:09;100265.88;;;14.90;37.52
69982;BME280;57319;56.274;43.980;2023-06-10T10:41:36;100263.72;;;14.72;38.18
69982;BME280;57319;56.274;43.980;2023-06-10T10:44:06;100260.28;;;14.71;38.43
69982;BME280;57319;56.274;43.980;2023-06-10T10:46:43;100265.88;;;14.90;38.42
69982;BME280;57319;56.274;43.980;2023-06-10T10:49:12;100253.06;;;15.22;38.28
69982;BME280;57319;56.274;43.980;2023-06-10T10:51:54;100259.44;;;15.44;36.90
69982;BME280;57319;56.274;43.980;2023-06-10T10:54:31;100269.00;;;15.77;35.90
69982;BME280;57319;56.274;43.980;2023-06-10T10:59:58;100271.88;;;16.01;34.52
69982;BME280;57319;56.274;43.980;2023-06-10T11:02:43;100262.19;;;15.73;35.19
69982;BME280;57319;56.274;43.980;2023-06-10T11:05:13;100266.63;;;15.35;37.01
69982;BME280;57319;56.274;43.980;2023-06-10T11:07:39;100273.19;;;15.48;37.27
69982;BME280;57319;56.274;43.980;2023-06-10T11:10:13;100276.47;;;16.22;35.97
69982;BME280;57319;56.274;43.980;2023-06-10T11:15:12;100280.41;;;17.52;33.32
69982;BME280;57319;56.274;43.980;2023-06-10T11:18:11;100278.50;;;18.09;30.39
69982;BME280;57319;56.274;43.980;2023-06-10T11:23:40;100285.38;;;17.58;31.23
69982;BME280;57319;56.274;43.980;2023-06-10T11:26:14;100280.00;;;16.81;33.27
69982;BME280;57319;56.274;43.980;2023-06-10T11:33:55;100284.75;;;16.37;34.21
69982;BME280;57319;56.274;43.980;2023-06-10T11:36:22;100278.81;;;17.48;33.11
69982;BME280;57319;56.274;43.980;2023-06-10T11:38:49;100282.19;;;17.50;32.88
69982;BME280;57319;56.274;43.980;2023-06-10T11:41:15;100280.19;;;17.58;33.08
69982;BME280;57319;56.274;43.980;2023-06-10T11:43:44;100288.09;;;17.55;33.10
69982;BME280;57319;56.274;43.980;2023-06-10T11:46:11;100295.47;;;16.86;33.78
69982;BME280;57319;56.274;43.980;2023-06-10T11:48:36;100299.50;;;16.36;32.67
69982;BME280;57319;56.274;43.980;2023-06-10T11:51:08;100298.56;;;15.71;33.53
69982;BME280;57319;56.274;43.980;2023-06-10T11:53:34;100310.13;;;15.59;34.13
69982;BME280;57319;56.274;43.980;2023-06-10T11:56:00;100296.81;;;15.36;33.49
69982;BME280;57319;56.274;43.980;2023-06-10T11:58:26;100298.63;;;14.95;34.60
69982;BME280;57319;56.274;43.980;2023-06-10T12:00:54;100304.09;;;14.81;35.97
69982;BME280;57319;56.274;43.980;2023-06-10T12:03:21;100315.53;;;15.11;35.34
69982;BME280;57319;56.274;43.980;2023-06-10T12:05:59;100317.81;;;15.26;36.15
69982;BME280;57319;56.274;43.980;2023-06-10T12:08:26;100317.19;;;15.53;34.46
69982;BME280;57319;56.274;43.980;2023-06-10T12:10:53;100314.88;;;15.76;34.12
69982;BME280;57319;56.274;43.980;2023-06-10T12:13:19;100323.28;;;16.21;33.25
69982;BME280;57319;56.274;43.980;2023-06-10T12:15:45;100314.84;;;16.44;32.48
69982;BME280;57319;56.274;43.980;2023-06-10T12:18:24;100317.69;;;16.36;31.85
69982;BME280;57319;56.274;43.980;2023-06-10T12:20:51;100312.38;;;16.08;32.68
69982;BME280;57319;56.274;43.980;2023-06-10T12:23:18;100315.97;;;16.02;32.92
69982;BME280;57319;56.274;43.980;2023-06-10T12:25:52;100315.59;;;15.83;33.23
69982;BME280;57319;56.274;43.980;2023-06-10T12:28:24;100321.28;;;15.61;33.25
69982;BME280;57319;56.274;43.980;2023-06-10T12:30:51;100318.03;;;15.53;34.79
69982;BME280;57319;56.274;43.980;2023-06-10T12:33:21;100320.53;;;15.58;34.08
69982;BME280;57319;56.274;43.980;2023-06-10T12:35:51;100321.25;;;15.63;32.85
69982;BME280;57319;56.274;43.980;2023-06-10T12:38:22;100325.25;;;15.76;33.04
69982;BME280;57319;56.274;43.980;2023-06-10T12:40:48;100335.00;;;16.03;33.61
69982;BME280;57319;56.274;43.980;2023-06-10T12:43:19;100323.03;;;15.97;32.18
69982;BME280;57319;56.274;43.980;2023-06-10T12:45:45;100315.97;;;16.02;33.58
69982;BME280;57319;56.274;43.980;2023-06-10T12:48:22;100328.66;;;16.15;34.08
69982;BME280;57319;56.274;43.980;2023-06-10T12:50:55;100324.25;;;16.17;34.43
69982;BME280;57319;56.274;43.980;2023-06-10T12:53:22;100323.66;;;16.38;34.54
69982;BME280;57319;56.274;43.980;2023-06-10T12:55:54;100320.75;;;16.18;32.41
69982;BME280;57319;56.274;43.980;2023-06-10T12:58:20;100329.28;;;15.90;32.36
69982;BME280;57319;56.274;43.980;2023-06-10T13:00:47;100319.03;;;15.48;32.27
69982;BME280;57319;56.274;43.980;2023-06-10T13:03:14;100323.34;;;15.49;32.80
69982;BME280;57319;56.274;43.980;2023-06-10T13:05:40;100328.38;;;15.55;32.85
69982;BME280;57319;56.274;43.980;2023-06-10T13:08:07;100315.63;;;15.46;33.29
69982;BME280;57319;56.274;43.980;2023-06-10T13:10:36;100306.16;;;15.44;32.57